Time;durP1;ratioP1;P1;durP2;ratioP2;P2;SDS_P1;SDS_P2;PMS_P1;PMS_P2;Temp;Humidity;BMP_temperature;BMP_pressure;BME280_temperature;BME280_humidity;BME280_pressure;Samples;Min_cycle;Max_cycle;Signal;HPM_P1;HPM_P2
2021/06/11 05:34:37;;;;;;;;;3.00;3.00;;;;;20.26;58.56;101776.81;6307815;22;45611;-89
2021/06/11 05:37:05;;;;;;;;;4.00;4.00;;;;;20.31;58.78;101782.97;6309343;22;45337;-91
2021/06/11 05:39:30;;;;;;;;;4.00;2.67;;;;;20.33;58.84;101788.31;6307774;22;46165;-87
2021/06/11 05:41:56;;;;;;;;;2.00;2.00;;;;;20.37;58.78;101792.72;6308685;22;45289;-87
2021/06/11 05:44:21;;;;;;;;;4.33;4.33;;;;;20.32;58.53;101775.88;6308839;22;45262;-87
2021/06/11 05:46:46;;;;;;;;;4.00;3.00;;;;;20.32;58.52;101778.53;6309560;22;45232;-86
2021/06/11 05:49:12;;;;;;;;;7.33;4.67;;;;;20.34;58.57;101771.41;6306432;22;47559;-84
2021/06/11 05:51:37;;;;;;;;;4.00;4.00;;;;;20.45;58.58;101801.56;6308979;22;45295;-87
2021/06/11 05:54:03;;;;;;;;;5.67;3.00;;;;;20.44;58.35;101788.22;6311474;22;45259;-83
2021/06/11 05:56:28;;;;;;;;;3.67;3.67;;;;;20.46;58.77;101786.44;6314830;22;45129;-84
2021/06/11 05:58:54;;;;;;;;;4.00;4.00;;;;;20.47;58.78;101799.78;6313279;22;46256;-82
2021/06/11 06:01:19;;;;;;;;;3.00;3.00;;;;;20.50;58.75;101806.00;6311517;22;45232;-85
2021/06/11 06:03:44;;;;;;;;;4.00;3.67;;;;;20.49;58.91;101794.44;6309229;22;45218;-83
2021/06/11 06:06:10;;;;;;;;;2.33;2.33;;;;;20.54;58.60;101799.75;6309189;22;45377;-87
2021/06/11 06:08:35;;;;;;;;;2.67;2.67;;;;;20.51;58.22;101794.41;6309875;22;45242;-87
2021/06/11 06:11:00;;;;;;;;;2.67;2.67;;;;;20.54;58.20;101807.78;6320167;22;45336;-83
2021/06/11 06:13:26;;;;;;;;;3.00;3.00;;;;;20.52;58.46;101793.53;6311188;22;45312;-84
2021/06/11 06:15:54;;;;;;;;;4.67;3.33;;;;;20.58;58.01;101804.19;6311128;22;45203;-84
2021/06/11 06:18:19;;;;;;;;;3.00;3.00;;;;;20.57;57.99;101800.59;6310232;22;45503;-87
2021/06/11 06:20:46;;;;;;;;;3.00;3.00;;;;;20.60;58.09;101800.56;6311020;22;45246;-82
2021/06/11 06:23:12;;;;;;;;;4.00;3.00;;;;;20.55;58.35;101796.16;6310009;22;45142;-85
2021/06/11 06:25:37;;;;;;;;;3.67;3.67;;;;;20.56;58.82;101789.94;6312175;22;45389;-83
2021/06/11 06:28:04;;;;;;;;;3.67;3.67;;;;;20.60;58.89;101800.56;6315014;22;45318;-88
2021/06/11 08:26:07;;;;;;;;;;;;;;;;;;;;;
2021/06/11 08:32:06;;;;;;;;;5.00;3.33;;;;;23.87;52.92;101845.22;5944106;23;46013;-93
2021/06/11 08:34:47;;;;;;;;;;;;;;;;;;;;;
2021/06/11 08:37:23;;;;;;;;;2.67;2.67;;;;;24.36;51.64;101834.34;5939126;24;69574;-92
2021/06/11 08:42:41;;;;;;;;;4.00;3.00;;;;;25.16;50.31;101823.44;5844515;24;46884;-93
2021/06/11 08:45:13;;;;;;;;;4.00;4.00;;;;;25.56;49.30;101816.06;5844302;24;45339;-92
2021/06/11 08:47:50;;;;;;;;;4.00;4.00;;;;;26.29;48.27;101839.09;5845653;24;45433;-92
2021/06/11 08:50:26;;;;;;;;;3.00;3.00;;;;;27.23;47.58;101846.81;5843984;24;45440;-93
2021/06/11 08:52:52;;;;;;;;;3.00;3.00;;;;;27.83;45.88;101849.19;5859801;24;47972;-93
2021/06/11 08:55:18;;;;;;;;;3.00;1.67;;;;;27.78;45.53;101820.56;5873710;24;45444;-93
2021/06/11 08:57:49;;;;;;;;;4.00;2.00;;;;;27.92;45.04;101844.34;5874017;24;44675;-94
2021/06/11 09:00:32;;;;;;;;;4.00;3.00;;;;;28.00;44.57;101847.66;5875019;24;45422;-94
2021/06/11 09:03:08;;;;;;;;;2.67;2.67;;;;;28.10;44.82;101821.13;5982199;23;47083;-94
2021/06/11 09:05:34;;;;;;;;;5.33;4.33;;;;;28.44;43.68;101840.53;5995595;23;45474;-93
2021/06/11 09:08:28;;;;;;;;;3.00;3.00;;;;;28.81;43.88;101842.66;6031595;22;44720;-92
2021/06/11 09:11:18;;;;;;;;;3.00;3.00;;;;;29.22;44.31;101837.28;6231145;22;45216;-95
2021/06/11 09:13:47;;;;;;;;;2.00;2.00;;;;;29.60;43.04;101838.31;6209976;22;47406;-92
2021/06/11 09:16:16;;;;;;;;;3.00;3.00;;;;;30.05;42.99;101838.06;6222103;22;45545;-94
2021/06/11 09:18:53;;;;;;;;;3.00;3.00;;;;;30.72;41.94;101845.69;6227602;22;45454;-94
2021/06/11 09:21:32;;;;;;;;;4.33;3.00;;;;;31.31;40.72;101836.34;6313288;22;45472;-95
2021/06/11 09:27:13;;;;;;;;;3.00;2.00;;;;;32.38;38.99;101830.53;6270227;22;44746;-93
2021/06/11 09:29:43;;;;;;;;;6.00;3.67;;;;;32.94;38.03;101815.47;6265022;22;44882;-92
2021/06/11 09:32:14;;;;;;;;;4.00;3.00;;;;;33.24;37.34;101817.31;6260918;22;45338;-91
2021/06/11 09:34:57;;;;;;;;;5.00;2.33;;;;;33.55;36.53;101819.06;6259242;22;47844;-91
2021/06/11 09:37:26;;;;;;;;;2.67;2.00;;;;;33.95;34.72;101821.06;6249845;22;45425;-91
2021/06/11 09:40:15;;;;;;;;;;;;;;;;;;;;;
2021/06/11 09:42:48;;;;;;;;;3.33;2.00;;;;;35.21;34.47;101827.22;6261380;22;64059;-90
2021/06/11 09:45:22;;;;;;;;;1.00;1.00;;;;;36.52;32.93;101832.38;6260408;22;47475;-91
2021/06/11 09:47:53;;;;;;;;;7.00;4.00;;;;;37.57;31.10;101825.13;6255673;22;45413;-91
2021/06/11 09:50:34;;;;;;;;;3.00;2.67;;;;;37.64;30.83;101809.94;6264839;22;45322;-91
2021/06/11 09:53:07;;;;;;;;;3.00;2.67;;;;;37.51;30.59;101832.00;6263618;22;45477;-91
2021/06/11 09:55:42;;;;;;;;;3.67;2.67;;;;;37.09;30.34;101832.56;6237144;22;46881;-93
2021/06/11 09:58:20;;;;;;;;;1.67;1.67;;;;;36.84;30.86;101838.16;6235790;22;44804;-91
2021/06/11 10:01:04;;;;;;;;;;;;;;;;;;;;;
2021/06/11 10:03:48;;;;;;;;;2.00;1.33;;;;;36.98;30.41;101835.28;6321612;22;63969;-90
2021/06/11 10:06:26;;;;;;;;;3.00;2.00;;;;;37.38;28.73;101818.41;6325936;22;47213;-92
2021/06/11 10:08:51;;;;;;;;;2.00;2.00;;;;;38.36;27.55;101824.25;6324896;22;44664;-91
2021/06/11 10:11:25;;;;;;;;;2.67;2.67;;;;;39.19;27.59;101809.81;6350770;22;44717;-93
2021/06/11 10:13:55;;;;;;;;;2.00;2.00;;;;;39.37;27.60;101817.41;6324580;22;44831;-91
2021/06/11 10:16:21;;;;;;;;;3.67;3.67;;;;;39.18;27.07;101831.91;6327149;22;45765;-94
2021/06/11 10:18:47;;;;;;;;;2.67;2.67;;;;;38.73;27.59;101825.69;6352912;22;45348;-92
2021/06/11 10:21:16;;;;;;;;;2.33;0.00;;;;;38.32;28.51;101815.41;6327139;22;45243;-92
2021/06/11 10:23:43;;;;;;;;;2.00;2.00;;;;;38.21;28.38;101825.41;6351909;22;45180;-91
2021/06/11 10:26:13;;;;;;;;;1.67;1.67;;;;;38.42;28.03;101813.63;6344540;22;47201;-92
2021/06/11 10:28:46;;;;;;;;;3.00;1.67;;;;;39.33;27.57;101816.81;6311743;22;45170;-91
2021/06/11 10:31:16;;;;;;;;;4.67;3.00;;;;;40.76;26.29;101842.44;6307489;22;45388;-91
2021/06/11 10:33:45;;;;;;;;;1.33;1.33;;;;;42.58;22.25;101831.03;6307482;22;45306;-92
2021/06/11 10:36:28;;;;;;;;;1.33;1.33;;;;;43.82;21.97;101825.50;6305941;22;48191;-92
2021/06/11 10:39:24;;;;;;;;;4.67;3.00;;;;;44.27;21.28;101825.25;6307929;22;45389;-91
2021/06/11 10:41:56;;;;;;;;;3.00;2.33;;;;;43.94;22.24;101837.97;6189751;22;45381;-92
2021/06/11 10:44:55;;;;;;;;;;;;;;;;;;;;;
2021/06/11 10:47:21;;;;;;;;;4.33;3.00;;;;;42.07;23.37;101815.06;6209810;22;75973;-92
2021/06/11 10:50:02;;;;;;;;;3.00;2.00;;;;;41.26;23.64;101823.00;6186852;22;45478;-94
2021/06/11 10:53:04;;;;;;;;;;;;;;;;;;;;;
2021/06/11 10:55:57;;;;;;;;;2.00;2.00;;;;;40.43;24.30;101797.78;6210826;22;65683;-92
2021/06/11 10:58:35;;;;;;;;;5.33;4.00;;;;;41.38;24.01;101805.25;6187598;22;48056;-91
2021/06/11 11:01:25;;;;;;;;;4.00;3.00;;;;;43.18;21.48;101799.97;6214848;22;45389;-92
2021/06/11 11:03:55;;;;;;;;;2.67;2.33;;;;;43.64;21.51;101793.25;6196771;22;45396;-92
2021/06/11 11:06:54;;;;;;;;;3.00;3.00;;;;;41.93;22.36;101790.72;6202207;22;45233;-91
2021/06/11 11:09:22;;;;;;;;;4.33;3.33;;;;;40.46;23.79;101798.38;6188014;22;47832;-93
2021/06/11 11:12:16;;;;;;;;;;;;;;;;;;;;;
2021/06/11 11:14:53;;;;;;;;;;;;;;;;;;;;;
2021/06/11 11:17:40;;;;;;;;;;;;;;;;;;;;;
2021/06/11 11:35:17;;;;;;;;;;;;;;;;;;;;;
2021/06/11 11:52:47;;;;;;;;;;;;;;;;;;;;;
2021/06/11 11:56:17;;;;;;;;;2.00;2.00;;;;;33.45;31.29;101747.91;5098959;27;44880;-92
2021/06/11 11:59:23;;;;;;;;;1.67;1.67;;;;;33.48;31.15;101764.06;4992921;28;45479;-94
2021/06/11 13:06:11;;;;;;;;;;;;;;;;;;;;;
2021/06/11 13:33:18;;;;;;;;;;;;;;;;;;;;;
2021/06/11 14:15:22;;;;;;;;;3.00;2.00;;;;;29.19;37.51;101715.59;4703662;30;45944;-92
2021/06/11 14:17:55;;;;;;;;;;;;;;;;;;;;;
2021/06/11 14:21:01;;;;;;;;;;;;;;;;;;;;;
2021/06/11 14:26:49;;;;;;;;;2.00;2.00;;;;;28.93;37.74;101714.94;4602127;30;45385;-91
2021/06/11 14:29:14;;;;;;;;;2.67;2.00;;;;;28.83;37.63;101706.34;4582857;30;45987;-89
2021/06/11 14:31:40;;;;;;;;;1.00;1.00;;;;;28.81;38.07;101707.38;4598680;30;45360;-84
2021/06/11 14:34:05;;;;;;;;;1.00;1.00;;;;;28.78;38.57;101713.81;4598099;30;45216;-85
2021/06/11 14:36:30;;;;;;;;;3.33;2.33;;;;;28.71;38.74;101702.38;4598209;30;45495;-90
2021/06/11 14:38:56;;;;;;;;;1.67;1.67;;;;;28.68;38.48;101699.81;4599095;30;45318;-88
2021/06/11 14:41:22;;;;;;;;;1.00;1.00;;;;;28.62;38.90;101702.78;4599074;30;45334;-89
2021/06/11 14:43:47;;;;;;;;;3.00;1.00;;;;;28.55;38.31;101707.59;4599094;30;45358;-90
2021/06/11 14:46:12;;;;;;;;;2.00;1.00;;;;;28.49;37.96;101699.75;4599754;30;46159;-90
2021/06/11 14:48:38;;;;;;;;;2.00;2.00;;;;;28.43;38.81;101703.56;4641980;30;45365;-93
2021/06/11 14:51:23;;;;;;;;;1.00;1.00;;;;;28.39;38.81;101708.22;4714604;29;45520;-92
2021/06/11 14:53:49;;;;;;;;;1.00;1.00;;;;;28.33;38.99;101700.34;4756086;29;45677;-91
2021/06/11 14:58:55;;;;;;;;;2.33;1.00;;;;;28.21;39.77;101699.06;4754725;29;45360;-88
2021/06/11 15:01:22;;;;;;;;;1.00;1.00;;;;;28.17;38.74;101714.53;4841673;29;45411;-85
2021/06/11 15:03:48;;;;;;;;;1.00;1.00;;;;;28.11;39.68;101704.00;4868016;29;45334;-91
2021/06/11 15:06:13;;;;;;;;;2.00;1.00;;;;;28.07;39.33;101700.50;4892869;29;45475;-85
2021/06/11 15:08:39;;;;;;;;;2.67;1.00;;;;;28.03;39.90;101704.28;4886132;29;45680;-84
2021/06/11 15:11:05;;;;;;;;;0.67;0.67;;;;;28.00;39.15;101688.22;4882692;29;45366;-84
2021/06/11 15:13:31;;;;;;;;;1.00;1.00;;;;;27.95;40.02;101687.50;4885888;29;45357;-92
2021/06/11 15:15:58;;;;;;;;;1.33;1.00;;;;;27.96;40.03;101681.19;4882211;29;45594;-91
2021/06/11 15:18:24;;;;;;;;;1.00;1.00;;;;;27.98;39.90;101690.97;4881928;29;45434;-89
2021/06/11 15:20:51;;;;;;;;;1.00;1.00;;;;;27.93;39.61;101673.19;4881477;29;45506;-88
2021/06/11 15:23:17;;;;;;;;;1.00;1.00;;;;;27.93;40.23;101682.19;4883019;29;45244;-82
2021/06/11 15:25:44;;;;;;;;;2.67;2.00;;;;;27.89;40.05;101683.25;4881729;29;45433;-87
2021/06/11 15:28:13;;;;;;;;;3.00;1.00;;;;;27.86;40.66;101678.84;4885244;29;45400;-88
2021/06/11 15:30:43;;;;;;;;;1.00;1.00;;;;;27.83;40.36;101683.50;4883207;29;45313;-86
2021/06/11 15:33:09;;;;;;;;;1.00;1.00;;;;;27.77;40.24;101673.84;4883806;29;45288;-89
2021/06/11 15:35:35;;;;;;;;;1.00;1.00;;;;;27.75;40.61;101686.53;4898357;29;46999;-82
2021/06/11 15:38:01;;;;;;;;;1.00;1.00;;;;;27.66;40.51;101665.25;4885060;29;45413;-85
2021/06/11 15:40:27;;;;;;;;;1.00;1.00;;;;;27.66;40.21;101679.63;4886651;29;45497;-88
2021/06/11 15:42:53;;;;;;;;;3.00;1.00;;;;;27.62;40.47;101675.31;4885415;29;45317;-89
2021/06/11 15:45:18;;;;;;;;;1.00;1.00;;;;;27.50;41.01;101660.44;4888015;29;45483;-87
2021/06/11 15:47:44;;;;;;;;;1.00;1.00;;;;;27.51;40.95;101673.03;4888112;29;45457;-90
2021/06/11 15:50:10;;;;;;;;;1.00;1.00;;;;;27.51;40.59;101676.63;4886969;29;45386;-86
2021/06/11 15:52:36;;;;;;;;;1.00;1.00;;;;;27.49;40.79;101672.22;4885539;29;45446;-89
2021/06/11 15:55:01;;;;;;;;;1.00;1.00;;;;;27.42;40.90;101663.47;4882439;29;46908;-93
2021/06/11 15:57:27;;;;;;;;;1.00;1.00;;;;;27.46;41.06;101683.13;4882252;28;45313;-89
2021/06/11 15:59:52;;;;;;;;;3.00;2.00;;;;;27.45;40.93;101675.97;4900470;28;45368;-92
2021/06/11 16:02:18;;;;;;;;;1.00;1.00;;;;;27.40;40.65;101678.84;4901591;28;45217;-84
2021/06/11 16:04:45;;;;;;;;;1.00;1.00;;;;;27.38;40.95;101665.41;4904680;29;46065;-93
2021/06/11 16:07:10;;;;;;;;;1.00;1.00;;;;;27.43;40.70;101677.84;4902826;28;45358;-90
2021/06/11 16:09:36;;;;;;;;;1.67;1.67;;;;;27.35;40.61;101668.22;4902453;29;45251;-90
2021/06/11 16:12:01;;;;;;;;;1.33;1.33;;;;;27.36;40.48;101670.00;4911463;28;45328;-90
2021/06/11 16:14:27;;;;;;;;;1.67;1.67;;;;;27.39;40.75;101674.41;4914162;28;46037;-88
2021/06/11 16:16:52;;;;;;;;;1.00;1.00;;;;;27.33;40.74;101670.09;4914016;28;45452;-89
2021/06/11 16:19:18;;;;;;;;;0.67;0.67;;;;;27.32;40.69;101668.34;4903664;28;45386;-85
2021/06/11 16:21:45;;;;;;;;;2.00;2.00;;;;;27.25;40.59;101650.63;4901254;28;45291;-85
2021/06/11 16:24:11;;;;;;;;;1.33;1.33;;;;;27.25;40.65;101656.03;4900981;28;45386;-87
2021/06/11 16:26:37;;;;;;;;;2.00;2.00;;;;;27.23;40.58;101656.09;4907571;28;45271;-82
2021/06/11 16:29:02;;;;;;;;;1.00;1.00;;;;;27.21;40.50;101657.09;4905371;29;45354;-83
2021/06/11 16:31:27;;;;;;;;;2.33;2.00;;;;;27.17;40.77;101653.63;4902479;28;45382;-85
2021/06/11 16:33:53;;;;;;;;;1.00;1.00;;;;;27.16;41.22;101657.25;4902759;28;46060;-81
2021/06/11 16:36:18;;;;;;;;;4.00;2.00;;;;;27.13;41.20;101647.47;4901589;29;45244;-83
2021/06/11 16:38:45;;;;;;;;;2.00;2.00;;;;;27.10;42.06;101647.59;4905229;28;45408;-80
2021/06/11 16:41:11;;;;;;;;;2.00;2.00;;;;;27.10;42.20;101650.28;4904383;28;45387;-82
2021/06/11 16:43:37;;;;;;;;;1.00;1.00;;;;;27.06;41.55;101645.91;4902941;29;45469;-82
2021/06/11 16:46:03;;;;;;;;;2.00;2.00;;;;;27.02;42.29;101645.16;4903284;29;45303;-81
2021/06/11 16:48:29;;;;;;;;;2.00;2.00;;;;;26.99;43.36;101639.88;4903765;29;45401;-85
2021/06/11 16:50:55;;;;;;;;;2.33;2.33;;;;;26.97;44.15;101646.28;4906100;28;45370;-83
2021/06/11 16:53:21;;;;;;;;;2.00;2.00;;;;;26.91;45.30;101647.38;4902569;29;47340;-85
2021/06/11 16:55:48;;;;;;;;;2.67;2.33;;;;;26.91;44.81;101647.38;4903894;28;45299;-85
2021/06/11 16:58:14;;;;;;;;;2.33;2.00;;;;;26.85;45.12;101640.38;4903438;28;45453;-83
2021/06/11 17:00:40;;;;;;;;;1.33;1.00;;;;;26.87;45.80;101643.91;4903091;29;45415;-84
2021/06/11 17:03:06;;;;;;;;;2.00;2.00;;;;;26.78;45.29;101628.09;4902780;29;46284;-82
2021/06/11 17:05:32;;;;;;;;;2.00;2.00;;;;;26.75;44.77;101631.78;4902594;28;45533;-83
2021/06/11 17:07:57;;;;;;;;;3.00;3.00;;;;;26.79;45.15;101649.59;4902953;28;45532;-82
2021/06/11 17:10:23;;;;;;;;;2.00;2.00;;;;;26.79;45.02;101641.50;4901943;29;45471;-88
2021/06/11 17:12:50;;;;;;;;;2.00;2.00;;;;;26.76;44.98;101641.59;4901726;29;45429;-87
2021/06/11 17:15:17;;;;;;;;;2.00;2.00;;;;;26.71;44.68;101635.53;4903523;29;45391;-85
2021/06/11 17:17:43;;;;;;;;;3.00;2.00;;;;;26.75;45.87;101641.66;4902473;28;45541;-82
2021/06/11 17:20:15;;;;;;;;;3.33;2.67;;;;;26.76;45.13;101638.91;4903901;28;45160;-87
2021/06/11 17:22:58;;;;;;;;;5.00;4.00;;;;;26.70;46.06;101637.31;4902949;28;46384;-85
2021/06/11 17:25:27;;;;;;;;;3.00;3.00;;;;;26.70;45.53;101645.41;4902886;28;45406;-83
2021/06/11 17:27:53;;;;;;;;;4.67;4.00;;;;;26.69;45.60;101638.25;4903690;28;45231;-88
2021/06/11 17:30:25;;;;;;;;;3.00;3.00;;;;;26.67;44.73;101645.50;4904053;29;45312;-87
2021/06/11 17:32:51;;;;;;;;;2.67;2.67;;;;;26.65;45.18;101642.00;4905150;28;45766;-86
2021/06/11 17:35:20;;;;;;;;;2.67;2.67;;;;;26.64;45.71;101651.03;4906127;28;45188;-87
2021/06/11 17:37:47;;;;;;;;;4.00;4.00;;;;;26.62;46.24;101644.81;4904789;28;45407;-83
2021/06/11 17:40:15;;;;;;;;;5.00;4.00;;;;;26.59;45.70;101642.22;4906634;28;45472;-83
2021/06/11 17:42:53;;;;;;;;;2.00;2.00;;;;;26.59;45.57;101645.81;4909182;28;46159;-82
2021/06/11 17:45:26;;;;;;;;;3.00;3.00;;;;;26.56;45.58;101651.31;4909160;28;45370;-84
2021/06/11 17:47:52;;;;;;;;;2.00;2.00;;;;;26.47;45.07;101632.78;4908735;28;45330;-82
2021/06/11 17:50:17;;;;;;;;;3.00;3.00;;;;;26.42;45.90;101623.97;4909824;28;45160;-81
2021/06/11 17:52:43;;;;;;;;;3.67;3.67;;;;;26.53;45.68;101643.34;4908634;29;46000;-82
2021/06/11 17:55:08;;;;;;;;;3.00;3.00;;;;;26.53;45.25;101647.84;4905851;28;45406;-81
2021/06/11 17:57:34;;;;;;;;;4.67;4.67;;;;;26.51;44.72;101641.63;4906608;28;45403;-84
2021/06/11 18:00:06;;;;;;;;;6.00;6.00;;;;;26.41;44.57;101624.91;4905196;28;45452;-86
2021/06/11 18:02:32;;;;;;;;;6.00;6.00;;;;;26.48;44.64;101638.09;4902972;28;45866;-82
2021/06/11 18:04:58;;;;;;;;;6.00;4.67;;;;;26.50;44.94;101648.84;4902599;29;45240;-84
2021/06/11 18:07:24;;;;;;;;;5.00;5.00;;;;;26.51;45.14;101655.09;4907738;28;45410;-83
2021/06/11 18:09:53;;;;;;;;;6.67;6.00;;;;;26.47;45.00;101648.94;4922154;28;45421;-83
2021/06/11 18:12:22;;;;;;;;;10.00;7.33;;;;;26.48;44.53;101659.66;4921765;28;45424;-84
2021/06/11 18:15:09;;;;;;;;;6.00;6.00;;;;;26.46;45.74;101650.75;4923418;28;45497;-84
2021/06/11 18:17:41;;;;;;;;;4.33;4.33;;;;;26.43;45.47;101656.25;4926089;28;45380;-83
2021/06/11 18:20:21;;;;;;;;;6.33;5.67;;;;;26.42;45.48;101662.56;4924091;28;45296;-84
2021/06/11 18:22:47;;;;;;;;;9.00;7.67;;;;;26.40;44.98;101661.75;4921263;28;45485;-83
2021/06/11 18:25:31;;;;;;;;;8.00;8.00;;;;;26.36;44.21;101660.06;4919838;28;45442;-83
2021/06/11 18:28:15;;;;;;;;;7.67;7.00;;;;;26.31;44.39;101654.84;4921256;28;45290;-84
2021/06/11 18:30:41;;;;;;;;;7.00;6.00;;;;;26.33;44.84;101668.28;4921105;28;45406;-83
2021/06/11 18:33:06;;;;;;;;;8.33;7.67;;;;;26.30;44.93;101660.28;4920821;28;46497;-84
2021/06/11 18:35:32;;;;;;;;;7.33;7.33;;;;;26.24;44.81;101662.25;4921301;28;45369;-86
2021/06/11 18:38:00;;;;;;;;;7.33;6.33;;;;;26.22;46.06;101664.13;4920580;28;45322;-83
2021/06/11 18:40:28;;;;;;;;;9.33;7.00;;;;;26.22;45.26;101665.94;4921792;28;45428;-86
2021/06/11 18:43:03;;;;;;;;;8.33;8.33;;;;;26.23;44.91;101679.34;4920885;28;46174;-84
2021/06/11 18:45:43;;;;;;;;;8.00;8.00;;;;;26.24;44.50;101672.16;4920388;28;45231;-83
2021/06/11 18:51:04;;;;;;;;;8.00;8.00;;;;;26.17;44.97;101671.47;4921582;28;45336;-93
2021/06/11 18:53:39;;;;;;;;;11.00;10.00;;;;;26.17;45.56;101674.16;4920734;28;45593;-92
2021/06/11 18:56:08;;;;;;;;;10.67;10.00;;;;;26.01;45.44;101646.88;4921685;28;45481;-92
2021/06/11 18:58:37;;;;;;;;;13.33;13.00;;;;;26.03;45.20;101650.41;4924129;28;45512;-92
2021/06/11 19:01:09;;;;;;;;;12.33;11.67;;;;;26.12;46.02;101668.06;4922106;28;45365;-93
2021/06/11 19:03:35;;;;;;;;;14.00;12.67;;;;;25.93;46.08;101639.06;4921877;28;48276;-92
2021/06/11 19:06:09;;;;;;;;;18.00;16.67;;;;;26.08;46.00;101672.66;4922085;28;45735;-92
2021/06/11 19:08:45;;;;;;;;;15.00;15.00;;;;;25.95;44.96;101653.34;4923325;28;45583;-92
2021/06/11 19:11:37;;;;;;;;;13.00;13.00;;;;;25.96;44.52;101660.50;4922803;28;45764;-93
2021/06/11 19:14:07;;;;;;;;;17.00;15.00;;;;;25.89;45.65;101654.41;4922239;28;47193;-92
2021/06/11 19:16:55;;;;;;;;;17.33;17.33;;;;;25.93;45.78;101660.59;4921166;28;45447;-92
2021/06/11 19:19:31;;;;;;;;;18.00;18.00;;;;;25.81;45.67;101653.78;4911770;28;45418;-92
2021/06/11 19:22:25;;;;;;;;;17.00;15.00;;;;;25.93;45.90;101681.25;4918410;28;45360;-93
2021/06/11 19:25:09;;;;;;;;;19.00;17.67;;;;;25.86;46.11;101677.88;4901987;29;47332;-94
2021/06/11 19:27:46;;;;;;;;;20.00;20.00;;;;;25.89;46.38;101689.44;4902462;29;45254;-93
2021/06/11 19:30:32;;;;;;;;;20.67;19.33;;;;;25.79;45.58;101680.78;4902526;29;45425;-93
2021/06/11 19:33:27;;;;;;;;;21.00;19.33;;;;;25.78;45.79;101684.38;4914644;29;45562;-91
2021/06/11 19:35:56;;;;;;;;;22.33;18.00;;;;;25.77;45.95;101681.75;4917288;28;45410;-92
2021/06/11 19:38:33;;;;;;;;;;;;;;;;;;;;;
2021/06/11 19:43:42;;;;;;;;;24.00;24.00;;;;;25.65;46.25;101672.22;4968149;23;60592;-90
2021/06/11 19:46:11;;;;;;;;;27.33;23.67;;;;;25.63;46.87;101674.09;4904827;29;48032;-90
2021/06/11 19:48:40;;;;;;;;;25.00;22.33;;;;;25.71;46.42;101690.03;4905181;29;45424;-91
2021/06/11 19:51:19;;;;;;;;;26.00;23.67;;;;;25.65;46.61;101693.75;4916622;29;44782;-89
2021/06/11 19:53:48;;;;;;;;;28.75;26.25;;;;;25.53;46.32;101685.13;4913328;29;45447;-90
2021/06/11 19:56:24;;;;;;;;;25.00;23.00;;;;;25.63;46.00;101706.38;4903605;29;46797;-91
2021/06/11 19:58:52;;;;;;;;;23.33;22.67;;;;;25.47;45.27;101689.84;4902339;29;45417;-92
2021/06/11 20:01:45;;;;;;;;;22.00;21.00;;;;;25.41;45.97;101685.50;4903424;29;45295;-91
2021/06/11 20:04:16;;;;;;;;;20.67;17.00;;;;;25.43;45.89;101694.41;4908937;29;45216;-90
2021/06/11 20:06:42;;;;;;;;;20.67;19.00;;;;;25.46;46.29;101706.91;4907770;29;47525;-91
2021/06/11 20:09:11;;;;;;;;;19.33;16.67;;;;;25.50;45.54;101720.22;4907911;29;45471;-90
2021/06/11 20:11:38;;;;;;;;;20.67;20.00;;;;;25.47;45.77;101717.63;4906201;29;45287;-92
2021/06/11 20:14:05;;;;;;;;;15.33;15.33;;;;;25.33;45.51;101700.09;4905829;29;45443;-90
2021/06/11 20:16:40;;;;;;;;;22.67;18.33;;;;;25.36;46.25;101707.16;4906268;29;48289;-91
2021/06/11 20:19:26;;;;;;;;;19.00;17.67;;;;;25.40;46.31;101721.44;4909075;29;45443;-89
2021/06/11 20:21:51;;;;;;;;;11.67;11.67;;;;;25.27;46.77;101711.03;4910014;29;45443;-91
2021/06/11 20:24:19;;;;;;;;;16.00;14.33;;;;;25.23;46.42;101698.59;4906716;29;45460;-92
2021/06/11 20:26:45;;;;;;;;;13.33;13.33;;;;;25.27;46.46;101721.81;4915290;28;47356;-92
2021/06/11 20:29:11;;;;;;;;;12.00;12.00;;;;;25.20;47.06;101710.31;4938918;28;45324;-92
2021/06/11 20:31:37;;;;;;;;;13.67;13.00;;;;;25.17;46.79;101709.53;4924700;28;45247;-91
2021/06/11 20:34:02;;;;;;;;;11.00;9.33;;;;;25.20;46.29;101721.09;4942651;28;44833;-91
2021/06/11 20:36:28;;;;;;;;;11.00;11.00;;;;;25.14;47.21;101718.56;4927647;28;46394;-92
2021/06/11 20:38:53;;;;;;;;;10.67;8.67;;;;;25.17;46.95;101736.44;4923456;28;45819;-92
2021/06/11 20:41:20;;;;;;;;;10.00;10.00;;;;;25.18;47.46;101735.50;4924592;28;45462;-91
2021/06/11 20:43:47;;;;;;;;;11.00;11.00;;;;;25.11;47.17;101736.63;4925028;28;45464;-93
2021/06/11 20:46:13;;;;;;;;;12.00;11.33;;;;;25.07;47.34;101736.69;4925040;28;46384;-92
2021/06/11 20:48:39;;;;;;;;;11.00;11.00;;;;;25.01;46.84;101735.97;4924982;28;45409;-92
2021/06/11 20:51:07;;;;;;;;;11.00;9.00;;;;;24.94;46.98;101729.84;4927436;28;45356;-91
2021/06/11 20:53:32;;;;;;;;;9.00;9.00;;;;;25.02;47.13;101749.41;4928988;28;45401;-91
2021/06/11 20:56:10;;;;;;;;;13.00;9.00;;;;;24.93;47.62;101738.84;4948622;28;47240;-91
2021/06/11 20:58:35;;;;;;;;;9.33;9.33;;;;;24.91;48.23;101736.22;4936281;28;45051;-91
2021/06/11 21:01:15;;;;;;;;;7.33;7.33;;;;;24.84;47.77;101739.97;4929755;28;45436;-93
2021/06/11 21:03:48;;;;;;;;;11.67;9.00;;;;;25.01;48.42;101769.13;4923409;28;45476;-93
2021/06/11 21:06:14;;;;;;;;;12.67;10.00;;;;;24.98;48.53;101763.84;4925557;28;47605;-92
2021/06/11 21:08:59;;;;;;;;;9.33;9.00;;;;;24.95;48.61;101763.88;4926274;28;45358;-92
2021/06/11 21:11:25;;;;;;;;;8.00;8.00;;;;;24.83;48.41;101759.72;4905503;29;45329;-93
2021/06/11 21:13:51;;;;;;;;;9.00;7.33;;;;;24.82;48.84;101758.84;4916101;28;45560;-90
2021/06/11 21:16:19;;;;;;;;;8.67;8.67;;;;;24.76;49.51;101753.63;4923124;28;46783;-93
2021/06/11 21:18:49;;;;;;;;;7.00;7.00;;;;;24.77;49.40;101760.75;4924030;28;45531;-93
2021/06/11 21:21:24;;;;;;;;;8.67;8.67;;;;;24.75;49.43;101762.59;4925522;28;45273;-93
2021/06/11 21:24:29;;;;;;;;;;;;;;;;;;;;;
2021/06/11 21:27:17;;;;;;;;;;;;;;;;;;;;;
2021/06/11 21:29:50;;;;;;;;;7.33;7.33;;;;;24.81;50.10;101794.72;4945699;28;71985;-90
2021/06/11 21:32:21;;;;;;;;;5.33;5.33;;;;;24.64;50.52;101770.97;4947185;28;44711;-91
2021/06/11 21:34:56;;;;;;;;;;;;;;;;;;;;;
2021/06/11 21:37:22;;;;;;;;;5.67;5.67;;;;;24.63;51.03;101791.59;4941001;28;74367;-90
2021/06/11 21:40:36;;;;;;;;;;;;;;;;;;;;;
2021/06/11 21:43:31;;;;;;;;;6.00;6.00;;;;;24.58;51.00;101798.88;4864188;29;68145;-91
2021/06/11 21:46:01;;;;;;;;;5.67;5.67;;;;;24.56;51.86;101802.53;4853081;29;45388;-91
2021/06/11 21:48:26;;;;;;;;;7.67;5.33;;;;;24.41;51.05;101780.47;4868083;29;47196;-90
2021/06/11 21:51:22;;;;;;;;;;;;;;;;;;;;;
2021/06/11 21:53:50;;;;;;;;;6.00;4.33;;;;;24.50;51.77;101807.13;4868754;29;69652;-91
2021/06/11 21:56:19;;;;;;;;;6.00;5.00;;;;;24.53;52.22;101816.94;4856442;29;44888;-91
2021/06/11 21:58:47;;;;;;;;;5.33;5.00;;;;;24.42;51.83;101805.53;4841159;29;47405;-91
2021/06/11 22:01:23;;;;;;;;;;;;;;;;;;;;;
2021/06/11 22:03:59;;;;;;;;;4.67;4.67;;;;;24.31;52.20;101789.66;4847148;29;67790;-94
2021/06/11 22:06:35;;;;;;;;;;;;;;;;;;;;;
2021/06/11 22:09:03;;;;;;;;;6.00;4.33;;;;;24.45;52.64;101806.34;4848625;29;74175;-92
2021/06/11 22:11:32;;;;;;;;;5.00;5.00;;;;;24.46;52.58;101815.28;4837449;29;46052;-92
2021/06/11 22:14:00;;;;;;;;;4.33;4.33;;;;;24.45;52.39;101813.53;4837518;29;45263;-93
2021/06/11 22:16:26;;;;;;;;;6.00;5.33;;;;;24.44;52.28;101806.38;4844561;29;45646;-92
2021/06/11 22:19:07;;;;;;;;;4.00;4.00;;;;;24.34;52.71;101793.19;4873040;28;46724;-91
2021/06/11 22:21:42;;;;;;;;;4.00;4.00;;;;;24.29;52.87;101790.59;4957626;28;44776;-92
2021/06/11 22:24:13;;;;;;;;;6.33;5.33;;;;;24.33;52.66;101794.09;4943334;28;44637;-90
2021/06/11 22:26:53;;;;;;;;;;;;;;;;;;;;;
2021/06/11 22:29:25;;;;;;;;;5.00;5.00;;;;;24.34;53.04;101806.63;4944412;28;74346;-92
2021/06/11 22:31:54;;;;;;;;;5.00;5.00;;;;;24.39;53.01;101815.44;4931722;28;45239;-92
2021/06/11 22:34:47;;;;;;;;;;;;;;;;;;;;;
2021/06/11 22:37:13;;;;;;;;;4.33;4.33;;;;;24.39;53.21;101820.81;4931881;28;63916;-92
2021/06/11 22:39:48;;;;;;;;;6.00;5.00;;;;;24.40;53.51;101819.03;4925797;28;47255;-93
2021/06/11 22:42:16;;;;;;;;;7.33;7.33;;;;;24.36;53.05;101811.97;4939417;28;45871;-92
2021/06/11 22:44:47;;;;;;;;;13.00;10.00;;;;;24.30;52.83;101807.63;4939016;28;44792;-93